This is the latest recevied weather packets stored in our database for station/object DH5DY-6. If no packets are shown the sender has not sent any weather packets the latest 10 day(s).
| Time | Temp. | Humidity | Pressure | Rain* | Wind** | Luminosity | Snow |
|---|---|---|---|---|---|---|---|
| 1787433038 | 12.22° C | 91% | 1020.4 hPa | 0 mm | - | 0 W/m² | - |
| 1787432437 | 12.22° C | 91% | 1020.3 hPa | 0 mm | - | 0 W/m² | - |
| 1787431837 | 12.22° C | 91% | 1020.4 hPa | 0 mm | - | 0 W/m² | - |
| 1787431237 | 12.22° C | 91% | 1020.4 hPa | 0 mm | - | 0 W/m² | - |
| 1787430636 | 12.78° C | 90% | 1020.4 hPa | 0 mm | - | 0 W/m² | - |
| 1787430036 | 12.78° C | 90% | 1020.3 hPa | 0 mm | - | 0 W/m² | - |
| 1787429436 | 13.33° C | 90% | 1020.1 hPa | 0 mm | - | 0 W/m² | - |
| 1787428836 | 13.33° C | 89% | 1020.1 hPa | 0 mm | - | 0 W/m² | - |
| 1787428236 | 13.33° C | 89% | 1020.1 hPa | 0 mm | - | 0 W/m² | - |
| 1787427637 | 13.89° C | 88% | 1020 hPa | 0 mm | - | 0 W/m² | - |
| 1787427036 | 13.89° C | 87% | 1019.9 hPa | 0 mm | - | 0 W/m² | - |
| 1787426436 | 14.44° C | 87% | 1019.8 hPa | 0 mm | - | 0 W/m² | - |
| 1787425836 | 14.44° C | 86% | 1019.8 hPa | 0 mm | - | 0 W/m² | - |
| 1787425236 | 14.44° C | 86% | 1019.6 hPa | 0 mm | - | 0 W/m² | - |
| 1787424636 | 15° C | 84% | 1019.5 hPa | 0 mm | - | 0 W/m² | - |
| 1787423436 | 15.56° C | 81% | 1019.3 hPa | 0 mm | - | 5 W/m² | - |
| 1787422835 | 16.11° C | 80% | 1019.2 hPa | 0 mm | - | 9 W/m² | - |
| 1787422236 | 16.67° C | 79% | 1019.2 hPa | 0 mm | - | 16 W/m² | - |
| 1787421636 | 16.67° C | 76% | 1019.2 hPa | 0 mm | - | 33 W/m² | - |
| 1787421036 | 16.67° C | 74% | 1019.1 hPa | 0 mm | - | 51 W/m² | - |
| 1787419835 | 16.67° C | 76% | 1019 hPa | 0 mm | - | 118 W/m² | - |
| 1787419236 | 16.67° C | 76% | 1018.9 hPa | 0 mm | - | 62 W/m² | - |
| 1787418035 | 16.67° C | 74% | 1018.7 hPa | 0 mm | - | 40 W/m² | - |
| 1787417436 | 17.78° C | 72% | 1018.4 hPa | 0 mm | - | 58 W/m² | - |
| 1787416837 | 17.22° C | 74% | 1018.5 hPa | 0 mm | - | 200 W/m² | - |
* Rain latest hour (hover to see other rain measurements)
** Current wind speed in m/s (hover to see current wind gust speed)